Beachs Corner, Idaho
Current Conditions -  °F | °C
As of 3:53 PM on Wednesday 22 Oct 2014 (Local Time) from KIDA Reporting Station
Clear Clear  
Wind Chill: 55°   Ceiling: Unl
Heat Index: 55°   Visibility: 10mi
Dew Point: 28°   Wind: 10mph
Humidity: 35%   Direction: 240°WSW
Pressure: 30.17"   Gusts: NA
Location:  43.498°N, 111.73°W
Report Text: KIDA 222153Z 24009KT 10SM CLR 13/M02 A3017 RMK AO2 SLP213 T01281022
Loading
Personal Weather Stations






























Interactive Weather Map
Tropical Storm Tracking
New forecast layout! Learn more

10-Day Weather Forecast

Advertisements
Track Severe Weather on mobile